createdAt,value
2023-04-18T00:00:15.839Z,101562.03
2023-04-18T00:02:42.268Z,101564.75
2023-04-18T00:05:08.771Z,101555.25
2023-04-18T00:07:35.127Z,101562.31
2023-04-18T00:10:01.524Z,101560.44
2023-04-18T00:12:27.887Z,101553.09
2023-04-18T00:14:54.221Z,101555.03
2023-04-18T00:17:20.594Z,101556.94
2023-04-18T00:19:46.966Z,101562.38
2023-04-18T00:22:13.290Z,101553.88
2023-04-18T00:24:39.667Z,101553.50
2023-04-18T00:27:06.029Z,101564.25
2023-04-18T00:29:32.350Z,101556.16
2023-04-18T00:31:58.715Z,101544.16
2023-04-18T00:34:25.041Z,101551.22
2023-04-18T00:36:51.433Z,101548.13
2023-04-18T00:39:17.750Z,101545.34
2023-04-18T00:41:44.068Z,101546.19
2023-04-18T00:44:10.500Z,101544.56
2023-04-18T00:46:36.894Z,101541.78
2023-04-18T00:49:03.389Z,101545.63
2023-04-18T00:51:29.706Z,101541.44
2023-04-18T00:53:56.010Z,101538.72
2023-04-18T00:56:22.345Z,101537.66
2023-04-18T00:58:48.832Z,101545.41
2023-04-18T01:01:15.276Z,101540.78
2023-04-18T01:03:41.826Z,101536.81
2023-04-18T01:06:08.395Z,101532.84
2023-04-18T01:08:34.721Z,101537.59
2023-04-18T01:11:01.070Z,101527.41
2023-04-18T01:13:27.422Z,101528.66
2023-04-18T01:15:53.811Z,101525.84
2023-04-18T01:18:20.162Z,101530.06
2023-04-18T01:20:46.544Z,101518.47
2023-04-18T01:23:12.917Z,101527.47
2023-04-18T01:25:39.257Z,101525.84
2023-04-18T01:28:05.576Z,101510.69
2023-04-18T01:30:31.981Z,101511.47
2023-04-18T01:32:58.320Z,101514.59
2023-04-18T01:35:24.714Z,101515.75
2023-04-18T01:37:51.060Z,101513.56
2023-04-18T01:40:17.443Z,101517.31
2023-04-18T01:42:43.791Z,101502.53
2023-04-18T01:45:10.106Z,101514.91
2023-04-18T01:47:36.527Z,101504.06
2023-04-18T01:50:02.926Z,101500.56
2023-04-18T01:52:29.262Z,101505.25
2023-04-18T01:54:55.607Z,101503.44
2023-04-18T01:57:21.930Z,101496.81
2023-04-18T01:59:48.251Z,101499.88
2023-04-18T02:02:14.696Z,101511.28
2023-04-18T02:04:41.053Z,101504.16
2023-04-18T02:07:07.441Z,101503.09
2023-04-18T02:09:33.805Z,101501.75
2023-04-18T02:12:00.197Z,101506.34
2023-04-18T02:14:26.553Z,101505.25
2023-04-18T02:16:52.967Z,101497.50
2023-04-18T02:19:19.427Z,101492.81
2023-04-18T02:21:45.739Z,101497.44
2023-04-18T02:24:12.219Z,101497.00
2023-04-18T02:26:38.658Z,101490.22
2023-04-18T02:29:05.013Z,101495.59
2023-04-18T02:31:31.386Z,101491.00
2023-04-18T02:33:57.738Z,101490.53
2023-04-18T02:36:24.074Z,101491.69
2023-04-18T02:38:50.418Z,101490.94
2023-04-18T02:41:16.786Z,101482.56
2023-04-18T02:43:43.151Z,101489.41
2023-04-18T02:46:09.564Z,101480.94
2023-04-18T02:48:36.057Z,101482.75
2023-04-18T02:51:02.439Z,101471.88
2023-04-18T02:53:28.780Z,101477.38
2023-04-18T02:55:55.088Z,101481.66
2023-04-18T02:58:21.416Z,101471.88
2023-04-18T03:00:47.798Z,101474.66
2023-04-18T03:03:14.160Z,101467.25
2023-04-18T03:05:40.530Z,101473.81
2023-04-18T03:08:06.924Z,101475.44
2023-04-18T03:10:33.290Z,101473.06
2023-04-18T03:12:59.615Z,101475.38
2023-04-18T03:15:25.923Z,101471.88
2023-04-18T03:17:52.324Z,101473.00
2023-04-18T03:20:18.708Z,101466.94
2023-04-18T03:22:45.065Z,101472.31
2023-04-18T03:25:11.402Z,101476.47
2023-04-18T03:27:37.716Z,101470.34
2023-04-18T03:30:04.062Z,101472.56
2023-04-18T03:32:30.493Z,101474.94
2023-04-18T03:34:56.821Z,101482.00
2023-04-18T03:37:23.154Z,101479.19
2023-04-18T03:39:49.484Z,101474.66
2023-04-18T03:42:15.834Z,101478.53
2023-04-18T03:44:42.130Z,101474.72
2023-04-18T03:47:08.471Z,101470.75
2023-04-18T03:49:34.782Z,101475.50
2023-04-18T03:52:01.233Z,101476.63
2023-04-18T03:54:27.540Z,101473.47
2023-04-18T03:56:53.844Z,101474.25
2023-04-18T03:59:20.199Z,101468.94
2023-04-18T04:01:46.662Z,101470.84
2023-04-18T04:04:13.189Z,101467.25
2023-04-18T04:06:39.704Z,101461.88
2023-04-18T04:09:06.072Z,101469.13
2023-04-18T04:11:32.398Z,101460.63
2023-04-18T04:13:58.704Z,101461.03
2023-04-18T04:16:25.038Z,101461.97
2023-04-18T04:18:51.429Z,101461.63
2023-04-18T04:21:20.011Z,101462.94
2023-04-18T04:23:47.461Z,101459.88
2023-04-18T04:26:13.818Z,101457.22
2023-04-18T04:28:40.196Z,101457.97
2023-04-18T04:31:06.593Z,101452.09
2023-04-18T04:33:32.943Z,101465.38
2023-04-18T04:35:59.280Z,101462.41
2023-04-18T04:38:25.587Z,101454.00
2023-04-18T04:40:51.888Z,101451.28
2023-04-18T04:43:18.252Z,101456.44
2023-04-18T04:45:44.748Z,101454.81
2023-04-18T04:48:11.199Z,101457.47
2023-04-18T04:50:37.572Z,101458.31
2023-04-18T04:53:03.913Z,101456.09
2023-04-18T04:55:30.244Z,101458.75
2023-04-18T04:57:56.576Z,101461.47
2023-04-18T05:00:22.873Z,101460.84
2023-04-18T05:02:49.309Z,101467.84
2023-04-18T05:05:15.811Z,101463.56
2023-04-18T05:07:42.175Z,101463.22
2023-04-18T05:10:08.526Z,101453.03
2023-04-18T05:12:34.840Z,101460.84
2023-04-18T05:15:01.201Z,101462.41
2023-04-18T05:17:27.535Z,101459.25
2023-04-18T05:19:53.895Z,101454.22
2023-04-18T05:22:20.271Z,101454.56
2023-04-18T05:24:46.634Z,101451.94
2023-04-18T05:27:13.034Z,101454.09
2023-04-18T05:29:39.400Z,101461.88
2023-04-18T05:32:05.764Z,101464.13
2023-04-18T05:34:32.133Z,101454.41
2023-04-18T05:36:58.496Z,101459.09
2023-04-18T05:39:24.880Z,101462.94
2023-04-18T05:41:51.306Z,101465.66
2023-04-18T05:44:17.950Z,101464.13
2023-04-18T05:46:44.667Z,101466.41
2023-04-18T05:49:11.102Z,101472.31
2023-04-18T05:51:37.453Z,101465.66
2023-04-18T05:54:03.852Z,101471.59
2023-04-18T05:56:30.237Z,101472.63
2023-04-18T05:58:56.581Z,101473.81
2023-04-18T06:01:22.924Z,101467.25
2023-04-18T06:03:49.507Z,101469.91
2023-04-18T06:06:16.019Z,101476.06
2023-04-18T06:08:42.338Z,101473.66
2023-04-18T06:11:08.692Z,101478.00
2023-04-18T06:13:35.072Z,101467.88
2023-04-18T06:16:01.444Z,101476.06
2023-04-18T06:18:27.851Z,101477.75
2023-04-18T06:20:54.232Z,101473.41
2023-04-18T06:23:20.602Z,101470.75
2023-04-18T06:25:46.930Z,101473.75
2023-04-18T06:28:13.294Z,101483.47
2023-04-18T06:30:39.672Z,101474.59
2023-04-18T06:33:06.056Z,101470.06
2023-04-18T06:35:32.394Z,101460.13
2023-04-18T06:37:58.770Z,101466.50
2023-04-18T06:40:25.142Z,101480.66
2023-04-18T06:42:51.494Z,101466.00
2023-04-18T06:45:17.839Z,101465.94
2023-04-18T06:47:44.256Z,101472.31
2023-04-18T06:50:10.671Z,101474.19
2023-04-18T06:52:36.994Z,101470.69
2023-04-18T06:55:03.330Z,101471.88
2023-04-18T06:57:29.686Z,101470.41
2023-04-18T06:59:55.998Z,101473.56
2023-04-18T07:02:22.421Z,101472.00
2023-04-18T07:04:48.930Z,101479.25
2023-04-18T07:07:15.294Z,101468.03
2023-04-18T07:09:41.626Z,101468.81
2023-04-18T07:12:07.970Z,101468.66
2023-04-18T07:14:34.469Z,101476.00
2023-04-18T07:17:00.822Z,101472.94
2023-04-18T07:19:27.228Z,101473.25
2023-04-18T07:21:53.569Z,101472.69
2023-04-18T07:24:19.884Z,101475.66
2023-04-18T07:26:46.292Z,101477.59
2023-04-18T07:29:12.618Z,101472.09
2023-04-18T07:31:38.965Z,101473.81
2023-04-18T07:34:05.358Z,101474.50
2023-04-18T07:36:31.816Z,101469.06
2023-04-18T07:38:58.142Z,101469.13
2023-04-18T07:41:24.462Z,101468.91
2023-04-18T07:43:50.789Z,101455.59
2023-04-18T07:46:17.196Z,101466.75
2023-04-18T07:48:43.630Z,101462.28
2023-04-18T07:51:10.003Z,101460.59
2023-04-18T07:53:36.330Z,101456.00
2023-04-18T07:56:02.650Z,101450.22
2023-04-18T07:58:29.013Z,101454.97
2023-04-18T08:00:55.380Z,101456.34
2023-04-18T08:03:21.904Z,101455.50
2023-04-18T08:05:48.438Z,101458.03
2023-04-18T08:08:14.784Z,101451.53
2023-04-18T08:10:41.194Z,101444.66
2023-04-18T08:13:07.578Z,101448.03
2023-04-18T08:15:33.907Z,101453.81
2023-04-18T08:18:00.404Z,101452.09
2023-04-18T08:20:27.060Z,101457.13
2023-04-18T08:23:05.683Z,101457.97
2023-04-18T08:25:34.128Z,101448.94
2023-04-18T08:28:00.472Z,101448.44
2023-04-18T08:30:26.856Z,101445.28
2023-04-18T08:32:53.343Z,101446.41
2023-04-18T08:35:19.768Z,101441.44
2023-04-18T08:37:46.094Z,101442.91
2023-04-18T08:40:12.833Z,101433.19
2023-04-18T08:42:39.212Z,101437.00
2023-04-18T08:45:05.519Z,101439.56
2023-04-18T08:47:31.869Z,101434.78
2023-04-18T08:49:58.251Z,101435.00
2023-04-18T08:52:24.573Z,101431.41
2023-04-18T08:54:50.889Z,101435.59
2023-04-18T08:57:17.248Z,101430.13
2023-04-18T08:59:43.851Z,101434.91
2023-04-18T09:02:11.505Z,101423.81
2023-04-18T09:04:38.037Z,101431.44
2023-04-18T09:07:04.552Z,101427.25
2023-04-18T09:09:30.874Z,101420.59
2023-04-18T09:11:57.205Z,101422.28
2023-04-18T09:14:23.569Z,101419.66
2023-04-18T09:16:49.994Z,101416.38
2023-04-18T09:19:16.470Z,101420.94
2023-04-18T09:21:42.998Z,101411.69
2023-04-18T09:24:09.331Z,101406.47
2023-04-18T09:26:35.748Z,101415.00
2023-04-18T09:29:02.192Z,101407.66
2023-04-18T09:31:28.577Z,101404.19
2023-04-18T09:33:54.940Z,101405.72
2023-04-18T09:36:21.549Z,101400.63
2023-04-18T09:38:47.959Z,101392.38
2023-04-18T09:41:14.341Z,101395.75
2023-04-18T09:43:40.713Z,101397.22
2023-04-18T09:46:07.058Z,101395.84
2023-04-18T09:48:33.447Z,101394.97
2023-04-18T09:50:59.773Z,101383.31
2023-04-18T09:53:26.098Z,101384.28
2023-04-18T09:55:52.471Z,101383.31
2023-04-18T09:58:18.819Z,101375.53
2023-04-18T10:00:46.813Z,101371.97
2023-04-18T10:03:13.633Z,101373.31
2023-04-18T10:05:40.124Z,101369.81
2023-04-18T10:08:06.508Z,101365.09
2023-04-18T10:10:32.919Z,101374.47
2023-04-18T10:12:59.257Z,101360.28
2023-04-18T10:15:25.590Z,101361.63
2023-04-18T10:18:03.543Z,101357.34
2023-04-18T10:20:31.880Z,101363.13
2023-04-18T10:22:58.241Z,101351.53
2023-04-18T10:25:24.703Z,101359.91
2023-04-18T10:27:51.030Z,101355.59
2023-04-18T10:30:17.361Z,101351.50
2023-04-18T10:32:43.783Z,101346.72
2023-04-18T10:35:10.148Z,101339.44
2023-04-18T10:37:36.525Z,101339.94
2023-04-18T10:40:02.864Z,101340.97
2023-04-18T10:42:29.190Z,101334.38
2023-04-18T10:44:55.558Z,101329.28
2023-04-18T10:47:22.029Z,101323.72
2023-04-18T10:49:48.452Z,101310.38
2023-04-18T10:52:14.771Z,101317.91
2023-04-18T10:54:41.164Z,101310.91
2023-04-18T10:57:07.643Z,101317.03
2023-04-18T10:59:34.043Z,101314.19
2023-04-18T11:02:00.508Z,101308.53
2023-04-18T11:04:26.938Z,101304.25
2023-04-18T11:06:53.366Z,101303.94
2023-04-18T11:09:19.751Z,101311.34
2023-04-18T11:11:46.056Z,101305.59
2023-04-18T11:14:12.697Z,101295.28
2023-04-18T11:16:39.317Z,101297.03
2023-04-18T11:19:05.670Z,101304.81
2023-04-18T11:21:32.025Z,101291.50
2023-04-18T11:23:58.357Z,101291.19
2023-04-18T11:26:24.733Z,101293.22
2023-04-18T11:28:51.304Z,101296.41
2023-04-18T11:31:17.777Z,101289.63
2023-04-18T11:33:44.217Z,101290.41
2023-04-18T11:36:10.574Z,101285.78
2023-04-18T11:38:36.940Z,101286.72
2023-04-18T11:41:03.309Z,101285.41
2023-04-18T11:43:29.663Z,101283.97
2023-04-18T11:45:56.183Z,101279.41
2023-04-18T11:48:22.685Z,101283.09
2023-04-18T11:50:49.043Z,101273.84
2023-04-18T11:53:15.382Z,101287.38
2023-04-18T11:55:41.837Z,101271.88
2023-04-18T11:58:08.247Z,101276.34
2023-04-18T12:00:34.693Z,101280.16
2023-04-18T12:03:01.177Z,101270.66
2023-04-18T12:05:27.745Z,101275.13
2023-04-18T12:07:54.301Z,101274.59
2023-04-18T12:10:20.677Z,101264.97
2023-04-18T12:12:47.002Z,101276.88
2023-04-18T12:15:13.327Z,101267.91
2023-04-18T12:17:39.725Z,101268.38
2023-04-18T12:20:06.173Z,101258.97
2023-04-18T12:22:32.551Z,101266.81
2023-04-18T12:24:58.896Z,101260.59
2023-04-18T12:27:25.246Z,101262.91
2023-04-18T12:29:51.633Z,101258.66
2023-04-18T12:32:18.003Z,101253.38
2023-04-18T12:34:44.339Z,101252.19
2023-04-18T12:37:10.648Z,101254.06
2023-04-18T12:39:36.954Z,101248.81
2023-04-18T12:42:03.354Z,101249.47
2023-04-18T12:44:29.733Z,101242.94
2023-04-18T12:46:56.180Z,101234.63
2023-04-18T12:49:22.593Z,101238.41
2023-04-18T12:51:48.948Z,101243.47
2023-04-18T12:54:15.526Z,101242.47
2023-04-18T12:56:41.961Z,101240.06
2023-04-18T12:59:08.283Z,101226.00
2023-04-18T13:01:34.814Z,101226.66
2023-04-18T13:04:11.857Z,101232.66
2023-04-18T13:06:39.136Z,101222.97
2023-04-18T13:09:05.503Z,101217.50
2023-04-18T13:11:31.868Z,101228.41
2023-04-18T13:13:58.316Z,101232.44
2023-04-18T13:16:24.685Z,101214.53
2023-04-18T13:18:51.062Z,101218.38
2023-04-18T13:21:17.483Z,101215.09
2023-04-18T13:23:43.778Z,101209.19
2023-04-18T13:26:10.085Z,101211.91
2023-04-18T13:28:36.415Z,101209.84
2023-04-18T13:31:02.726Z,101200.13
2023-04-18T13:33:29.097Z,101195.13
2023-04-18T13:35:55.416Z,101194.78
2023-04-18T13:38:21.753Z,101191.31
2023-04-18T13:40:49.380Z,101196.66
2023-04-18T13:43:16.881Z,101192.81
2023-04-18T13:45:43.298Z,101186.38
2023-04-18T13:48:09.708Z,101184.00
2023-04-18T13:50:36.105Z,101179.44
2023-04-18T13:53:02.442Z,101187.25
2023-04-18T13:55:28.776Z,101187.94
2023-04-18T13:57:55.148Z,101186.16
2023-04-18T14:00:21.464Z,101189.78
2023-04-18T14:02:48.025Z,101178.31
2023-04-18T14:05:14.657Z,101178.41
2023-04-18T14:07:40.981Z,101183.03
2023-04-18T14:10:07.369Z,101173.81
2023-04-18T14:12:33.770Z,101176.25
2023-04-18T14:15:00.148Z,101182.00
2023-04-18T14:17:26.560Z,101169.34
2023-04-18T14:19:52.938Z,101174.84
2023-04-18T14:22:19.288Z,101170.34
2023-04-18T14:24:45.672Z,101179.63
2023-04-18T14:27:12.088Z,101178.50
2023-04-18T14:29:38.408Z,101168.56
2023-04-18T14:32:04.704Z,101166.53
2023-04-18T14:34:33.297Z,101167.06
2023-04-18T14:37:01.488Z,101164.66
2023-04-18T14:39:27.858Z,101167.84
2023-04-18T14:41:54.189Z,101162.59
2023-04-18T14:44:20.491Z,101158.34
2023-04-18T14:46:46.881Z,101166.09
2023-04-18T14:49:13.494Z,101163.47
2023-04-18T14:51:39.916Z,101167.50
2023-04-18T14:54:06.356Z,101159.78
2023-04-18T14:56:32.675Z,101159.00
2023-04-18T14:58:59.006Z,101158.88
2023-04-18T15:01:25.342Z,101147.44
2023-04-18T15:03:51.830Z,101160.50
2023-04-18T15:06:18.364Z,101160.41
2023-04-18T15:08:44.741Z,101155.28
2023-04-18T15:11:11.100Z,101150.03
2023-04-18T15:13:37.449Z,101155.59
2023-04-18T15:16:03.822Z,101156.91
2023-04-18T15:18:30.373Z,101156.69
2023-04-18T15:20:56.814Z,101155.72
2023-04-18T15:23:23.196Z,101150.72
2023-04-18T15:25:49.535Z,101144.59
2023-04-18T15:28:15.857Z,101145.38
2023-04-18T15:30:42.218Z,101146.44
2023-04-18T15:33:08.662Z,101141.31
2023-04-18T15:35:35.058Z,101143.56
2023-04-18T15:38:01.430Z,101139.91
2023-04-18T15:40:27.775Z,101144.69
2023-04-18T15:42:54.157Z,101135.75
2023-04-18T15:45:20.524Z,101135.75
2023-04-18T15:47:46.946Z,101134.75
2023-04-18T15:50:13.326Z,101129.94
2023-04-18T15:52:39.644Z,101132.91
2023-04-18T15:55:05.954Z,101132.66
2023-04-18T15:57:32.332Z,101127.22
2023-04-18T15:59:58.692Z,101129.31
2023-04-18T16:02:25.080Z,101122.53
2023-04-18T16:04:51.522Z,101131.06
2023-04-18T16:07:17.944Z,101130.28
2023-04-18T16:09:44.247Z,101129.09
2023-04-18T16:12:10.568Z,101131.38
2023-04-18T16:14:36.888Z,101127.22
2023-04-18T16:17:03.242Z,101132.25
2023-04-18T16:19:29.551Z,101135.09
2023-04-18T16:21:55.872Z,101120.56
2023-04-18T16:24:22.204Z,101137.81
2023-04-18T16:26:48.569Z,101127.00
2023-04-18T16:29:14.932Z,101133.53
2023-04-18T16:31:41.327Z,101131.16
2023-04-18T16:34:07.659Z,101130.81
2023-04-18T16:36:34.041Z,101133.53
2023-04-18T16:39:00.365Z,101135.84
2023-04-18T16:41:26.863Z,101137.81
2023-04-18T16:43:53.200Z,101131.16
2023-04-18T16:46:19.631Z,101140.22
2023-04-18T16:48:46.050Z,101140.13
2023-04-18T16:51:12.410Z,101136.28
2023-04-18T16:53:38.754Z,101132.66
2023-04-18T16:56:05.095Z,101134.22
2023-04-18T16:58:31.434Z,101139.75
2023-04-18T17:00:57.813Z,101139.00
2023-04-18T17:03:24.319Z,101135.09
2023-04-18T17:05:50.714Z,101141.81
2023-04-18T17:08:17.010Z,101140.31
2023-04-18T17:10:43.358Z,101133.22
2023-04-18T17:13:09.665Z,101131.38
2023-04-18T17:15:36.022Z,101128.97
2023-04-18T17:18:02.403Z,101128.97
2023-04-18T17:20:28.740Z,101127.41
2023-04-18T17:22:55.070Z,101143.78
2023-04-18T17:25:21.374Z,101174.53
2023-04-18T17:27:47.737Z,101172.69
2023-04-18T17:30:14.122Z,101173.44
2023-04-18T17:32:40.532Z,101158.06
2023-04-18T17:35:06.894Z,101147.81
2023-04-18T17:37:33.283Z,101145.09
2023-04-18T17:39:59.722Z,101139.41
2023-04-18T17:42:26.083Z,101133.53
2023-04-18T17:44:52.461Z,101138.22
2023-04-18T17:47:18.846Z,101140.16
2023-04-18T17:49:45.148Z,101136.34
2023-04-18T17:52:11.531Z,101138.66
2023-04-18T17:54:37.838Z,101143.13
2023-04-18T17:57:04.209Z,101140.31
2023-04-18T17:59:30.595Z,101152.81
2023-04-18T18:01:57.019Z,101171.91
2023-04-18T18:04:26.245Z,101189.47
2023-04-18T18:06:53.165Z,101194.25
2023-04-18T18:09:19.477Z,101195.22
2023-04-18T18:11:45.831Z,101195.53
2023-04-18T18:14:12.262Z,101182.44
2023-04-18T18:16:38.702Z,101194.00
2023-04-18T18:19:05.156Z,101192.81
2023-04-18T18:21:31.477Z,101193.25
2023-04-18T18:23:57.833Z,101198.06
2023-04-18T18:26:24.202Z,101205.16
2023-04-18T18:28:50.589Z,101209.53
2023-04-18T18:31:17.016Z,101204.06
2023-04-18T18:33:43.456Z,101208.91
2023-04-18T18:36:09.800Z,101206.50
2023-04-18T18:38:36.117Z,101203.41
2023-04-18T18:41:03.749Z,101203.31
2023-04-18T18:43:30.252Z,101206.88
2023-04-18T18:45:56.610Z,101195.53
2023-04-18T18:48:23.022Z,101206.34
2023-04-18T18:50:49.327Z,101203.63
2023-04-18T18:53:15.774Z,101204.50
2023-04-18T18:55:42.099Z,101207.06
2023-04-18T18:58:08.447Z,101218.59
2023-04-18T19:00:34.759Z,101224.03
2023-04-18T19:03:01.264Z,101223.72
2023-04-18T19:05:27.685Z,101221.31
2023-04-18T19:07:53.981Z,101231.47
2023-04-18T19:10:20.292Z,101229.50
2023-04-18T19:12:46.633Z,101229.69
2023-04-18T19:15:12.998Z,101241.38
2023-04-18T19:17:39.432Z,101239.50
2023-04-18T19:20:05.787Z,101235.25
2023-04-18T19:22:32.155Z,101242.66
2023-04-18T19:24:58.457Z,101246.22
2023-04-18T19:27:24.829Z,101241.00
2023-04-18T19:29:51.180Z,101243.31
2023-04-18T19:32:17.512Z,101252.69
2023-04-18T19:34:43.873Z,101244.28
2023-04-18T19:37:10.263Z,101259.00
2023-04-18T19:39:36.605Z,101254.41
2023-04-18T19:42:02.916Z,101250.13
2023-04-18T19:44:29.260Z,101249.28
2023-04-18T19:46:55.586Z,101254.72
2023-04-18T19:49:21.930Z,101261.41
2023-04-18T19:51:48.234Z,101247.00
2023-04-18T19:54:14.579Z,101255.56
2023-04-18T19:56:40.904Z,101254.78
2023-04-18T19:59:07.237Z,101262.28
2023-04-18T20:01:33.593Z,101269.56
2023-04-18T20:04:00.200Z,101261.63
2023-04-18T20:06:26.949Z,101269.97
2023-04-18T20:08:53.364Z,101267.25
2023-04-18T20:11:19.715Z,101265.78
2023-04-18T20:13:46.019Z,101262.06
2023-04-18T20:16:12.457Z,101260.19
2023-04-18T20:18:38.824Z,101263.34
2023-04-18T20:21:05.223Z,101258.69
2023-04-18T20:23:31.765Z,101259.41
2023-04-18T20:25:58.096Z,101264.19
2023-04-18T20:28:24.435Z,101257.47
2023-04-18T20:30:50.769Z,101265.22
2023-04-18T20:33:17.082Z,101272.63
2023-04-18T20:35:43.442Z,101269.56
2023-04-18T20:38:09.756Z,101271.91
2023-04-18T20:40:36.108Z,101278.56
2023-04-18T20:43:02.807Z,101285.94
2023-04-18T20:45:29.186Z,101284.38
2023-04-18T20:47:55.529Z,101281.22
2023-04-18T20:50:22.001Z,101278.94
2023-04-18T20:52:48.335Z,101286.25
2023-04-18T20:55:14.655Z,101289.13
2023-04-18T20:57:40.968Z,101281.22
2023-04-18T21:00:07.313Z,101290.16
2023-04-18T21:02:33.829Z,101286.06
2023-04-18T21:05:00.271Z,101288.28
2023-04-18T21:07:26.693Z,101286.66
2023-04-18T21:09:53.036Z,101286.31
2023-04-18T21:12:19.340Z,101285.94
2023-04-18T21:14:45.670Z,101283.03
2023-04-18T21:17:12.005Z,101288.34
2023-04-18T21:19:38.298Z,101285.16
2023-04-18T21:22:04.607Z,101286.25
2023-04-18T21:24:30.978Z,101282.44
2023-04-18T21:26:57.285Z,101285.47
2023-04-18T21:29:23.635Z,101278.56
2023-04-18T21:31:50.008Z,101276.88
2023-04-18T21:34:16.581Z,101290.59
2023-04-18T21:36:43.024Z,101286.25
2023-04-18T21:39:09.324Z,101282.81
2023-04-18T21:41:35.649Z,101282.34
2023-04-18T21:44:01.972Z,101282.00
2023-04-18T21:46:28.322Z,101285.06
2023-04-18T21:48:54.636Z,101281.22
2023-04-18T21:51:21.026Z,101283.59
2023-04-18T21:53:47.393Z,101277.38
2023-04-18T21:56:13.755Z,101271.16
2023-04-18T21:58:40.317Z,101276.69
2023-04-18T22:01:06.702Z,101271.16
2023-04-18T22:03:33.226Z,101278.13
2023-04-18T22:05:59.730Z,101272.44
2023-04-18T22:08:26.247Z,101274.41
2023-04-18T22:10:52.559Z,101278.13
2023-04-18T22:13:18.932Z,101274.31
2023-04-18T22:15:45.335Z,101271.91
2023-04-18T22:18:11.725Z,101275.34
2023-04-18T22:20:38.070Z,101270.06
2023-04-18T22:23:04.427Z,101276.22
2023-04-18T22:25:30.804Z,101270.38
2023-04-18T22:27:57.127Z,101270.75
2023-04-18T22:30:23.630Z,101280.09
2023-04-18T22:32:50.132Z,101275.84
2023-04-18T22:35:16.487Z,101273.53
2023-04-18T22:37:42.881Z,101275.50
2023-04-18T22:40:09.255Z,101272.00
2023-04-18T22:42:37.264Z,101277.38
2023-04-18T22:45:04.953Z,101272.69
2023-04-18T22:47:31.302Z,101269.72
2023-04-18T22:49:57.693Z,101273.09
2023-04-18T22:52:24.087Z,101275.19
2023-04-18T22:54:50.394Z,101271.25
2023-04-18T22:57:16.824Z,101271.78
2023-04-18T22:59:43.227Z,101272.00
2023-04-18T23:02:09.623Z,101276.22
2023-04-18T23:04:36.139Z,101267.31
2023-04-18T23:07:02.635Z,101271.59
2023-04-18T23:09:29.003Z,101267.75
2023-04-18T23:11:55.365Z,101271.91
2023-04-18T23:14:21.723Z,101277.38
2023-04-18T23:16:48.032Z,101280.53
2023-04-18T23:19:14.339Z,101282.00
2023-04-18T23:21:40.655Z,101279.31
2023-04-18T23:24:06.992Z,101278.56
2023-04-18T23:26:33.306Z,101274.72
2023-04-18T23:28:59.653Z,101274.72
2023-04-18T23:31:26.147Z,101275.19
2023-04-18T23:33:52.527Z,101275.91
2023-04-18T23:36:18.878Z,101282.50
2023-04-18T23:38:45.194Z,101271.91
2023-04-18T23:41:11.551Z,101272.78
2023-04-18T23:43:37.929Z,101260.63
2023-04-18T23:46:04.300Z,101266.16
2023-04-18T23:48:30.630Z,101262.66
2023-04-18T23:50:56.987Z,101265.03
2023-04-18T23:53:23.386Z,101262.28
2023-04-18T23:55:50.909Z,101266.66
2023-04-18T23:58:17.525Z,101257.28
